Aviation Digital Data Service (ADDS)

Output produced by METARs form (1145 UTC 01 November 2014)
found at http://aviationweather.gov/adds/metars/
 
KMHT 011120Z 0112/0212 34009KT P6SM BKN100 BKN200 
     FM011500 02011G20KT P6SM -RA OVC025 
     FM011600 02011G20KT 3SM -RA OVC015 
     FM012300 01012G28KT 3SM -RA OVC015 
     FM020100 36013G28KT 2SM -RA OVC008 
     FM020300 36014G27KT P6SM OVC008